sensor_id;sensor_type;location;lat;lon;timestamp;P1;durP1;ratioP1;P2;durP2;ratioP2
34102;SDS011;20381;54.498;18.206;2023-05-07T00:01:21;10.78;;;6.37;;
34102;SDS011;20381;54.498;18.206;2023-05-07T00:03:47;8.73;;;4.90;;
34102;SDS011;20381;54.498;18.206;2023-05-07T00:06:14;13.68;;;5.92;;
34102;SDS011;20381;54.498;18.206;2023-05-07T00:08:41;17.52;;;5.60;;
34102;SDS011;20381;54.498;18.206;2023-05-07T00:11:07;14.68;;;6.10;;
34102;SDS011;20381;54.498;18.206;2023-05-07T00:13:33;11.05;;;5.78;;
34102;SDS011;20381;54.498;18.206;2023-05-07T00:16:04;17.85;;;6.25;;
34102;SDS011;20381;54.498;18.206;2023-05-07T00:18:31;11.93;;;5.30;;
34102;SDS011;20381;54.498;18.206;2023-05-07T00:20:57;10.15;;;4.90;;
34102;SDS011;20381;54.498;18.206;2023-05-07T00:23:25;7.72;;;5.47;;
34102;SDS011;20381;54.498;18.206;2023-05-07T00:25:51;9.98;;;5.53;;
34102;SDS011;20381;54.498;18.206;2023-05-07T00:28:20;9.48;;;4.62;;
34102;SDS011;20381;54.498;18.206;2023-05-07T00:30:50;6.92;;;5.00;;
34102;SDS011;20381;54.498;18.206;2023-05-07T00:33:19;9.53;;;5.35;;
34102;SDS011;20381;54.498;18.206;2023-05-07T00:35:47;9.88;;;4.75;;
34102;SDS011;20381;54.498;18.206;2023-05-07T00:38:21;11.45;;;4.72;;
34102;SDS011;20381;54.498;18.206;2023-05-07T00:40:48;7.78;;;5.00;;
34102;SDS011;20381;54.498;18.206;2023-05-07T00:43:18;8.05;;;5.00;;
34102;SDS011;20381;54.498;18.206;2023-05-07T00:45:44;7.90;;;4.90;;
34102;SDS011;20381;54.498;18.206;2023-05-07T00:48:11;8.18;;;5.05;;
34102;SDS011;20381;54.498;18.206;2023-05-07T00:50:39;8.60;;;4.97;;
34102;SDS011;20381;54.498;18.206;2023-05-07T00:53:05;12.75;;;4.90;;
34102;SDS011;20381;54.498;18.206;2023-05-07T00:55:32;7.60;;;4.78;;
34102;SDS011;20381;54.498;18.206;2023-05-07T00:58:01;12.00;;;5.20;;
34102;SDS011;20381;54.498;18.206;2023-05-07T01:00:28;7.75;;;4.75;;
34102;SDS011;20381;54.498;18.206;2023-05-07T01:02:54;9.70;;;5.00;;
34102;SDS011;20381;54.498;18.206;2023-05-07T01:05:21;7.50;;;4.70;;
34102;SDS011;20381;54.498;18.206;2023-05-07T01:07:49;8.90;;;4.83;;
34102;SDS011;20381;54.498;18.206;2023-05-07T01:10:18;9.08;;;5.50;;
34102;SDS011;20381;54.498;18.206;2023-05-07T01:12:48;11.33;;;5.10;;
34102;SDS011;20381;54.498;18.206;2023-05-07T01:15:17;9.75;;;4.60;;
34102;SDS011;20381;54.498;18.206;2023-05-07T01:17:44;9.60;;;4.87;;
34102;SDS011;20381;54.498;18.206;2023-05-07T01:20:11;6.47;;;4.72;;
34102;SDS011;20381;54.498;18.206;2023-05-07T01:22:38;11.38;;;5.62;;
34102;SDS011;20381;54.498;18.206;2023-05-07T01:25:05;8.50;;;4.58;;
34102;SDS011;20381;54.498;18.206;2023-05-07T01:27:35;8.18;;;4.60;;
34102;SDS011;20381;54.498;18.206;2023-05-07T01:30:05;9.95;;;4.67;;
34102;SDS011;20381;54.498;18.206;2023-05-07T01:35:20;6.33;;;4.53;;
34102;SDS011;20381;54.498;18.206;2023-05-07T01:37:50;11.68;;;4.80;;
34102;SDS011;20381;54.498;18.206;2023-05-07T01:40:16;11.83;;;5.78;;
34102;SDS011;20381;54.498;18.206;2023-05-07T01:42:43;12.73;;;4.70;;
34102;SDS011;20381;54.498;18.206;2023-05-07T01:45:11;13.58;;;5.10;;
34102;SDS011;20381;54.498;18.206;2023-05-07T01:47:37;7.33;;;5.00;;
34102;SDS011;20381;54.498;18.206;2023-05-07T01:50:08;8.88;;;4.03;;
34102;SDS011;20381;54.498;18.206;2023-05-07T01:52:39;9.13;;;4.83;;
34102;SDS011;20381;54.498;18.206;2023-05-07T01:55:04;14.80;;;4.95;;
34102;SDS011;20381;54.498;18.206;2023-05-07T01:57:32;10.43;;;4.90;;
34102;SDS011;20381;54.498;18.206;2023-05-07T01:59:58;10.72;;;4.40;;
34102;SDS011;20381;54.498;18.206;2023-05-07T02:02:29;10.65;;;5.40;;
34102;SDS011;20381;54.498;18.206;2023-05-07T02:04:54;9.43;;;4.30;;
34102;SDS011;20381;54.498;18.206;2023-05-07T02:07:20;7.03;;;4.55;;
34102;SDS011;20381;54.498;18.206;2023-05-07T02:09:53;9.83;;;4.42;;
34102;SDS011;20381;54.498;18.206;2023-05-07T02:12:24;6.17;;;4.30;;
34102;SDS011;20381;54.498;18.206;2023-05-07T02:14:52;10.48;;;4.40;;
34102;SDS011;20381;54.498;18.206;2023-05-07T02:17:18;8.08;;;4.70;;
34102;SDS011;20381;54.498;18.206;2023-05-07T02:19:54;12.30;;;4.80;;
34102;SDS011;20381;54.498;18.206;2023-05-07T02:22:20;8.85;;;4.85;;
34102;SDS011;20381;54.498;18.206;2023-05-07T02:24:46;6.30;;;4.22;;
34102;SDS011;20381;54.498;18.206;2023-05-07T02:27:12;7.83;;;5.10;;
34102;SDS011;20381;54.498;18.206;2023-05-07T02:29:38;7.37;;;4.05;;
34102;SDS011;20381;54.498;18.206;2023-05-07T02:32:04;8.68;;;4.30;;
34102;SDS011;20381;54.498;18.206;2023-05-07T02:34:31;6.25;;;4.17;;
34102;SDS011;20381;54.498;18.206;2023-05-07T02:36:57;10.05;;;4.53;;
34102;SDS011;20381;54.498;18.206;2023-05-07T02:39:24;8.88;;;4.20;;
34102;SDS011;20381;54.498;18.206;2023-05-07T02:41:55;11.90;;;4.50;;
34102;SDS011;20381;54.498;18.206;2023-05-07T02:44:19;6.95;;;4.67;;
34102;SDS011;20381;54.498;18.206;2023-05-07T02:46:45;6.60;;;4.13;;
34102;SDS011;20381;54.498;18.206;2023-05-07T02:49:12;10.95;;;3.95;;
34102;SDS011;20381;54.498;18.206;2023-05-07T02:51:38;11.10;;;4.72;;
34102;SDS011;20381;54.498;18.206;2023-05-07T02:54:04;10.10;;;3.95;;
34102;SDS011;20381;54.498;18.206;2023-05-07T02:56:30;7.17;;;4.58;;
34102;SDS011;20381;54.498;18.206;2023-05-07T02:58:57;8.98;;;4.55;;
34102;SDS011;20381;54.498;18.206;2023-05-07T03:01:23;7.35;;;4.87;;
34102;SDS011;20381;54.498;18.206;2023-05-07T03:03:50;9.73;;;4.87;;
34102;SDS011;20381;54.498;18.206;2023-05-07T03:06:16;8.05;;;4.70;;
34102;SDS011;20381;54.498;18.206;2023-05-07T03:08:42;9.58;;;4.65;;
34102;SDS011;20381;54.498;18.206;2023-05-07T03:11:09;11.10;;;4.25;;
34102;SDS011;20381;54.498;18.206;2023-05-07T03:13:35;5.28;;;4.30;;
34102;SDS011;20381;54.498;18.206;2023-05-07T03:16:01;10.88;;;4.60;;
34102;SDS011;20381;54.498;18.206;2023-05-07T03:18:28;7.50;;;4.70;;
34102;SDS011;20381;54.498;18.206;2023-05-07T03:20:54;10.90;;;4.55;;
34102;SDS011;20381;54.498;18.206;2023-05-07T03:23:20;5.70;;;3.72;;
34102;SDS011;20381;54.498;18.206;2023-05-07T03:25:47;23.18;;;8.95;;
34102;SDS011;20381;54.498;18.206;2023-05-07T03:28:13;21.45;;;9.38;;
34102;SDS011;20381;54.498;18.206;2023-05-07T03:30:39;17.02;;;7.47;;
34102;SDS011;20381;54.498;18.206;2023-05-07T03:33:06;12.65;;;5.67;;
34102;SDS011;20381;54.498;18.206;2023-05-07T03:35:32;9.83;;;5.03;;
34102;SDS011;20381;54.498;18.206;2023-05-07T03:37:59;10.58;;;6.00;;
34102;SDS011;20381;54.498;18.206;2023-05-07T03:40:27;8.75;;;4.33;;
34102;SDS011;20381;54.498;18.206;2023-05-07T03:42:53;7.67;;;3.92;;
34102;SDS011;20381;54.498;18.206;2023-05-07T03:45:19;6.65;;;3.80;;
34102;SDS011;20381;54.498;18.206;2023-05-07T03:47:48;7.80;;;4.53;;
34102;SDS011;20381;54.498;18.206;2023-05-07T03:50:13;6.97;;;4.80;;
34102;SDS011;20381;54.498;18.206;2023-05-07T03:52:40;7.60;;;3.95;;
34102;SDS011;20381;54.498;18.206;2023-05-07T03:55:06;6.28;;;4.12;;
34102;SDS011;20381;54.498;18.206;2023-05-07T03:57:34;9.08;;;4.30;;
34102;SDS011;20381;54.498;18.206;2023-05-07T04:00:00;7.87;;;4.15;;
34102;SDS011;20381;54.498;18.206;2023-05-07T04:02:29;9.25;;;4.00;;
34102;SDS011;20381;54.498;18.206;2023-05-07T04:04:56;6.80;;;3.70;;
34102;SDS011;20381;54.498;18.206;2023-05-07T04:07:22;13.22;;;4.62;;
34102;SDS011;20381;54.498;18.206;2023-05-07T04:09:48;6.45;;;3.80;;
34102;SDS011;20381;54.498;18.206;2023-05-07T04:12:15;8.63;;;3.52;;
34102;SDS011;20381;54.498;18.206;2023-05-07T04:14:43;10.48;;;4.45;;
34102;SDS011;20381;54.498;18.206;2023-05-07T04:17:09;7.03;;;3.77;;
34102;SDS011;20381;54.498;18.206;2023-05-07T04:19:36;7.72;;;4.80;;
34102;SDS011;20381;54.498;18.206;2023-05-07T04:22:06;7.72;;;4.60;;
34102;SDS011;20381;54.498;18.206;2023-05-07T04:24:32;6.83;;;3.83;;
34102;SDS011;20381;54.498;18.206;2023-05-07T04:26:58;6.35;;;3.80;;
34102;SDS011;20381;54.498;18.206;2023-05-07T04:29:25;5.67;;;3.83;;
34102;SDS011;20381;54.498;18.206;2023-05-07T04:31:51;7.05;;;3.85;;
34102;SDS011;20381;54.498;18.206;2023-05-07T04:34:17;12.78;;;3.80;;
34102;SDS011;20381;54.498;18.206;2023-05-07T04:36:44;7.00;;;4.85;;
34102;SDS011;20381;54.498;18.206;2023-05-07T04:39:11;9.20;;;4.10;;
34102;SDS011;20381;54.498;18.206;2023-05-07T04:44:04;7.85;;;3.95;;
34102;SDS011;20381;54.498;18.206;2023-05-07T04:46:30;7.22;;;3.92;;
34102;SDS011;20381;54.498;18.206;2023-05-07T04:48:56;6.65;;;4.15;;
34102;SDS011;20381;54.498;18.206;2023-05-07T04:51:22;10.08;;;3.65;;
34102;SDS011;20381;54.498;18.206;2023-05-07T04:53:49;5.10;;;3.22;;
34102;SDS011;20381;54.498;18.206;2023-05-07T04:56:16;6.58;;;3.40;;
34102;SDS011;20381;54.498;18.206;2023-05-07T04:58:42;6.12;;;3.40;;
34102;SDS011;20381;54.498;18.206;2023-05-07T05:01:08;7.33;;;3.72;;
34102;SDS011;20381;54.498;18.206;2023-05-07T05:03:35;7.97;;;3.33;;
34102;SDS011;20381;54.498;18.206;2023-05-07T05:06:01;8.03;;;3.33;;
34102;SDS011;20381;54.498;18.206;2023-05-07T05:08:28;5.85;;;3.60;;
34102;SDS011;20381;54.498;18.206;2023-05-07T05:11:00;6.60;;;2.98;;
34102;SDS011;20381;54.498;18.206;2023-05-07T05:13:27;7.78;;;3.15;;
34102;SDS011;20381;54.498;18.206;2023-05-07T05:15:54;4.83;;;3.47;;
34102;SDS011;20381;54.498;18.206;2023-05-07T05:18:23;6.47;;;3.70;;
34102;SDS011;20381;54.498;18.206;2023-05-07T05:20:51;7.03;;;3.70;;
34102;SDS011;20381;54.498;18.206;2023-05-07T05:23:17;5.50;;;3.45;;
34102;SDS011;20381;54.498;18.206;2023-05-07T05:25:44;4.83;;;2.95;;
34102;SDS011;20381;54.498;18.206;2023-05-07T05:28:10;4.00;;;2.80;;
34102;SDS011;20381;54.498;18.206;2023-05-07T05:30:37;6.05;;;3.08;;
34102;SDS011;20381;54.498;18.206;2023-05-07T05:33:06;4.92;;;2.42;;
34102;SDS011;20381;54.498;18.206;2023-05-07T05:35:33;5.40;;;2.58;;
34102;SDS011;20381;54.498;18.206;2023-05-07T05:38:00;7.62;;;2.52;;
34102;SDS011;20381;54.498;18.206;2023-05-07T05:40:27;3.92;;;2.52;;
34102;SDS011;20381;54.498;18.206;2023-05-07T05:42:54;8.53;;;3.08;;
34102;SDS011;20381;54.498;18.206;2023-05-07T05:45:20;8.50;;;2.83;;
34102;SDS011;20381;54.498;18.206;2023-05-07T05:47:47;5.42;;;2.47;;
34102;SDS011;20381;54.498;18.206;2023-05-07T05:50:13;7.08;;;3.02;;
34102;SDS011;20381;54.498;18.206;2023-05-07T05:52:39;5.72;;;2.75;;
34102;SDS011;20381;54.498;18.206;2023-05-07T05:55:06;6.70;;;3.20;;
34102;SDS011;20381;54.498;18.206;2023-05-07T05:57:34;5.90;;;3.35;;
34102;SDS011;20381;54.498;18.206;2023-05-07T06:00:01;6.77;;;3.10;;
34102;SDS011;20381;54.498;18.206;2023-05-07T06:02:28;9.53;;;3.25;;
34102;SDS011;20381;54.498;18.206;2023-05-07T06:07:21;6.35;;;3.33;;
34102;SDS011;20381;54.498;18.206;2023-05-07T06:09:48;4.50;;;3.27;;
34102;SDS011;20381;54.498;18.206;2023-05-07T06:12:14;4.03;;;2.90;;
34102;SDS011;20381;54.498;18.206;2023-05-07T06:14:42;5.37;;;3.07;;
34102;SDS011;20381;54.498;18.206;2023-05-07T06:17:09;5.72;;;4.33;;
34102;SDS011;20381;54.498;18.206;2023-05-07T06:19:35;6.97;;;3.50;;
34102;SDS011;20381;54.498;18.206;2023-05-07T06:22:01;7.10;;;3.80;;
34102;SDS011;20381;54.498;18.206;2023-05-07T06:24:28;10.00;;;3.52;;
34102;SDS011;20381;54.498;18.206;2023-05-07T06:26:54;6.53;;;3.80;;
34102;SDS011;20381;54.498;18.206;2023-05-07T06:29:21;5.40;;;2.75;;
34102;SDS011;20381;54.498;18.206;2023-05-07T06:31:48;5.23;;;3.23;;
34102;SDS011;20381;54.498;18.206;2023-05-07T06:34:14;3.90;;;2.47;;
34102;SDS011;20381;54.498;18.206;2023-05-07T06:36:42;3.27;;;2.25;;
34102;SDS011;20381;54.498;18.206;2023-05-07T06:39:08;6.67;;;2.22;;
34102;SDS011;20381;54.498;18.206;2023-05-07T06:41:35;3.80;;;2.22;;
34102;SDS011;20381;54.498;18.206;2023-05-07T06:44:01;4.17;;;2.50;;
34102;SDS011;20381;54.498;18.206;2023-05-07T06:48:55;2.40;;;2.05;;
34102;SDS011;20381;54.498;18.206;2023-05-07T06:53:48;8.10;;;2.17;;
34102;SDS011;20381;54.498;18.206;2023-05-07T06:56:15;5.23;;;2.20;;
34102;SDS011;20381;54.498;18.206;2023-05-07T06:58:43;3.60;;;1.82;;
34102;SDS011;20381;54.498;18.206;2023-05-07T07:01:09;2.37;;;2.08;;
34102;SDS011;20381;54.498;18.206;2023-05-07T07:03:36;3.30;;;2.35;;
34102;SDS011;20381;54.498;18.206;2023-05-07T07:06:05;4.08;;;2.25;;
34102;SDS011;20381;54.498;18.206;2023-05-07T07:08:38;3.42;;;2.10;;
34102;SDS011;20381;54.498;18.206;2023-05-07T07:11:04;8.43;;;1.80;;
34102;SDS011;20381;54.498;18.206;2023-05-07T07:13:33;3.33;;;2.00;;
34102;SDS011;20381;54.498;18.206;2023-05-07T07:16:04;2.67;;;1.92;;
34102;SDS011;20381;54.498;18.206;2023-05-07T07:18:30;3.52;;;2.08;;
34102;SDS011;20381;54.498;18.206;2023-05-07T07:21:01;5.75;;;2.02;;
34102;SDS011;20381;54.498;18.206;2023-05-07T07:23:29;6.65;;;2.27;;
34102;SDS011;20381;54.498;18.206;2023-05-07T07:25:58;5.55;;;1.95;;
34102;SDS011;20381;54.498;18.206;2023-05-07T07:28:25;4.50;;;2.35;;
34102;SDS011;20381;54.498;18.206;2023-05-07T07:30:52;3.90;;;2.00;;
34102;SDS011;20381;54.498;18.206;2023-05-07T07:33:18;3.17;;;2.00;;
34102;SDS011;20381;54.498;18.206;2023-05-07T07:35:45;5.87;;;2.40;;
34102;SDS011;20381;54.498;18.206;2023-05-07T07:38:13;13.78;;;2.47;;
34102;SDS011;20381;54.498;18.206;2023-05-07T07:40:39;4.70;;;2.10;;
34102;SDS011;20381;54.498;18.206;2023-05-07T07:43:05;4.37;;;1.70;;
34102;SDS011;20381;54.498;18.206;2023-05-07T07:45:36;2.33;;;1.70;;
34102;SDS011;20381;54.498;18.206;2023-05-07T07:48:03;4.97;;;1.67;;
34102;SDS011;20381;54.498;18.206;2023-05-07T07:50:30;3.25;;;1.67;;
34102;SDS011;20381;54.498;18.206;2023-05-07T07:52:56;4.87;;;1.55;;
34102;SDS011;20381;54.498;18.206;2023-05-07T07:55:23;2.95;;;1.52;;
34102;SDS011;20381;54.498;18.206;2023-05-07T07:57:51;2.70;;;1.40;;
34102;SDS011;20381;54.498;18.206;2023-05-07T08:00:18;6.03;;;1.90;;
34102;SDS011;20381;54.498;18.206;2023-05-07T08:02:45;2.92;;;1.52;;
34102;SDS011;20381;54.498;18.206;2023-05-07T08:05:11;2.60;;;1.72;;
34102;SDS011;20381;54.498;18.206;2023-05-07T08:07:38;7.65;;;1.47;;
34102;SDS011;20381;54.498;18.206;2023-05-07T08:10:08;12.55;;;1.60;;
34102;SDS011;20381;54.498;18.206;2023-05-07T08:12:38;4.22;;;1.70;;
34102;SDS011;20381;54.498;18.206;2023-05-07T08:15:07;4.35;;;1.37;;
34102;SDS011;20381;54.498;18.206;2023-05-07T08:17:34;6.20;;;1.50;;
34102;SDS011;20381;54.498;18.206;2023-05-07T08:20:02;3.25;;;1.32;;
34102;SDS011;20381;54.498;18.206;2023-05-07T08:22:30;5.03;;;1.98;;
34102;SDS011;20381;54.498;18.206;2023-05-07T08:24:56;3.45;;;1.20;;
34102;SDS011;20381;54.498;18.206;2023-05-07T08:27:22;3.80;;;1.35;;
34102;SDS011;20381;54.498;18.206;2023-05-07T08:29:49;2.75;;;1.20;;
34102;SDS011;20381;54.498;18.206;2023-05-07T08:32:16;1.75;;;1.07;;
34102;SDS011;20381;54.498;18.206;2023-05-07T08:34:46;3.65;;;1.30;;
34102;SDS011;20381;54.498;18.206;2023-05-07T08:37:14;5.10;;;1.07;;
34102;SDS011;20381;54.498;18.206;2023-05-07T08:39:41;4.30;;;1.50;;
34102;SDS011;20381;54.498;18.206;2023-05-07T08:42:07;5.03;;;1.25;;
34102;SDS011;20381;54.498;18.206;2023-05-07T08:44:37;2.30;;;1.07;;
34102;SDS011;20381;54.498;18.206;2023-05-07T08:47:06;1.70;;;1.27;;
34102;SDS011;20381;54.498;18.206;2023-05-07T08:49:33;3.05;;;1.12;;
34102;SDS011;20381;54.498;18.206;2023-05-07T08:52:01;3.08;;;1.22;;
34102;SDS011;20381;54.498;18.206;2023-05-07T08:54:30;8.75;;;1.47;;
34102;SDS011;20381;54.498;18.206;2023-05-07T08:56:57;2.70;;;1.22;;
34102;SDS011;20381;54.498;18.206;2023-05-07T08:59:25;1.50;;;1.00;;
34102;SDS011;20381;54.498;18.206;2023-05-07T09:01:51;3.22;;;1.32;;
34102;SDS011;20381;54.498;18.206;2023-05-07T09:04:20;3.45;;;1.00;;
34102;SDS011;20381;54.498;18.206;2023-05-07T09:06:49;1.62;;;1.00;;
34102;SDS011;20381;54.498;18.206;2023-05-07T09:09:21;4.03;;;1.35;;
34102;SDS011;20381;54.498;18.206;2023-05-07T09:11:44;5.25;;;1.20;;
34102;SDS011;20381;54.498;18.206;2023-05-07T09:14:12;5.28;;;1.20;;
34102;SDS011;20381;54.498;18.206;2023-05-07T09:16:43;4.47;;;2.65;;
34102;SDS011;20381;54.498;18.206;2023-05-07T09:19:11;3.92;;;1.12;;
34102;SDS011;20381;54.498;18.206;2023-05-07T09:21:37;8.83;;;1.47;;
34102;SDS011;20381;54.498;18.206;2023-05-07T09:24:06;3.52;;;1.35;;
34102;SDS011;20381;54.498;18.206;2023-05-07T09:26:33;6.25;;;1.37;;
34102;SDS011;20381;54.498;18.206;2023-05-07T09:29:00;2.60;;;1.42;;
34102;SDS011;20381;54.498;18.206;2023-05-07T09:31:30;1.80;;;0.98;;
34102;SDS011;20381;54.498;18.206;2023-05-07T09:34:01;3.08;;;1.32;;
34102;SDS011;20381;54.498;18.206;2023-05-07T09:36:27;4.37;;;1.40;;
34102;SDS011;20381;54.498;18.206;2023-05-07T09:38:54;5.22;;;1.12;;
34102;SDS011;20381;54.498;18.206;2023-05-07T09:41:22;2.33;;;1.40;;
34102;SDS011;20381;54.498;18.206;2023-05-07T09:43:53;2.35;;;1.55;;
34102;SDS011;20381;54.498;18.206;2023-05-07T09:46:24;3.62;;;1.30;;
34102;SDS011;20381;54.498;18.206;2023-05-07T09:48:54;2.37;;;1.20;;
34102;SDS011;20381;54.498;18.206;2023-05-07T09:51:47;2.47;;;1.32;;
34102;SDS011;20381;54.498;18.206;2023-05-07T09:54:13;3.00;;;1.25;;
34102;SDS011;20381;54.498;18.206;2023-05-07T09:56:40;1.27;;;1.17;;
34102;SDS011;20381;54.498;18.206;2023-05-07T09:59:12;1.47;;;1.12;;
34102;SDS011;20381;54.498;18.206;2023-05-07T10:01:44;3.98;;;1.55;;
34102;SDS011;20381;54.498;18.206;2023-05-07T10:04:12;2.10;;;1.27;;
34102;SDS011;20381;54.498;18.206;2023-05-07T10:06:40;4.20;;;1.20;;
34102;SDS011;20381;54.498;18.206;2023-05-07T10:09:07;3.42;;;1.77;;
34102;SDS011;20381;54.498;18.206;2023-05-07T10:11:34;3.33;;;1.45;;
34102;SDS011;20381;54.498;18.206;2023-05-07T10:14:05;3.33;;;1.85;;
34102;SDS011;20381;54.498;18.206;2023-05-07T10:16:33;4.30;;;1.50;;
34102;SDS011;20381;54.498;18.206;2023-05-07T10:19:02;2.55;;;1.20;;
34102;SDS011;20381;54.498;18.206;2023-05-07T10:21:35;5.08;;;1.30;;
34102;SDS011;20381;54.498;18.206;2023-05-07T10:24:10;3.05;;;1.22;;
34102;SDS011;20381;54.498;18.206;2023-05-07T10:26:41;2.90;;;1.90;;
34102;SDS011;20381;54.498;18.206;2023-05-07T10:29:18;6.15;;;1.37;;
34102;SDS011;20381;54.498;18.206;2023-05-07T10:34:45;2.55;;;1.32;;
34102;SDS011;20381;54.498;18.206;2023-05-07T10:37:17;3.02;;;1.20;;
34102;SDS011;20381;54.498;18.206;2023-05-07T10:39:44;5.95;;;1.60;;
34102;SDS011;20381;54.498;18.206;2023-05-07T10:42:12;2.08;;;1.30;;
34102;SDS011;20381;54.498;18.206;2023-05-07T10:44:41;2.62;;;1.32;;
34102;SDS011;20381;54.498;18.206;2023-05-07T10:47:08;5.12;;;1.50;;
34102;SDS011;20381;54.498;18.206;2023-05-07T10:49:49;5.72;;;1.80;;
34102;SDS011;20381;54.498;18.206;2023-05-07T10:54:45;6.37;;;1.53;;
34102;SDS011;20381;54.498;18.206;2023-05-07T10:59:58;2.35;;;1.35;;
34102;SDS011;20381;54.498;18.206;2023-05-07T11:05:31;4.65;;;1.60;;
34102;SDS011;20381;54.498;18.206;2023-05-07T11:08:02;3.85;;;2.00;;
34102;SDS011;20381;54.498;18.206;2023-05-07T11:11:15;2.60;;;1.20;;
34102;SDS011;20381;54.498;18.206;2023-05-07T11:13:18;2.98;;;1.30;;
34102;SDS011;20381;54.498;18.206;2023-05-07T11:15:47;3.30;;;1.40;;
34102;SDS011;20381;54.498;18.206;2023-05-07T11:18:15;7.90;;;1.70;;
34102;SDS011;20381;54.498;18.206;2023-05-07T11:20:46;2.60;;;1.25;;
34102;SDS011;20381;54.498;18.206;2023-05-07T11:26:04;4.53;;;1.30;;
34102;SDS011;20381;54.498;18.206;2023-05-07T11:28:36;2.90;;;1.50;;
34102;SDS011;20381;54.498;18.206;2023-05-07T11:31:05;5.15;;;1.90;;
34102;SDS011;20381;54.498;18.206;2023-05-07T11:33:33;3.10;;;1.77;;
34102;SDS011;20381;54.498;18.206;2023-05-07T11:36:02;3.20;;;1.57;;
34102;SDS011;20381;54.498;18.206;2023-05-07T11:38:30;65.20;;;6.53;;
34102;SDS011;20381;54.498;18.206;2023-05-07T11:40:59;4.78;;;1.40;;
34102;SDS011;20381;54.498;18.206;2023-05-07T11:43:26;3.70;;;1.45;;
34102;SDS011;20381;54.498;18.206;2023-05-07T11:45:53;4.10;;;2.33;;
34102;SDS011;20381;54.498;18.206;2023-05-07T11:48:21;5.83;;;1.80;;
34102;SDS011;20381;54.498;18.206;2023-05-07T11:50:51;1.75;;;1.62;;
34102;SDS011;20381;54.498;18.206;2023-05-07T11:53:20;3.65;;;1.70;;
34102;SDS011;20381;54.498;18.206;2023-05-07T11:55:49;1.50;;;1.27;;
34102;SDS011;20381;54.498;18.206;2023-05-07T11:58:22;4.47;;;1.37;;
34102;SDS011;20381;54.498;18.206;2023-05-07T12:00:49;2.15;;;1.40;;
34102;SDS011;20381;54.498;18.206;2023-05-07T12:03:20;6.00;;;1.77;;
34102;SDS011;20381;54.498;18.206;2023-05-07T12:05:48;1.70;;;1.30;;
34102;SDS011;20381;54.498;18.206;2023-05-07T12:08:15;4.95;;;1.47;;
34102;SDS011;20381;54.498;18.206;2023-05-07T12:10:47;3.17;;;1.20;;
34102;SDS011;20381;54.498;18.206;2023-05-07T12:13:22;2.92;;;1.60;;
34102;SDS011;20381;54.498;18.206;2023-05-07T12:15:45;4.25;;;1.50;;
34102;SDS011;20381;54.498;18.206;2023-05-07T12:18:11;3.40;;;1.70;;
34102;SDS011;20381;54.498;18.206;2023-05-07T12:20:43;2.65;;;1.35;;
34102;SDS011;20381;54.498;18.206;2023-05-07T12:23:10;3.72;;;1.57;;
34102;SDS011;20381;54.498;18.206;2023-05-07T12:25:37;6.10;;;1.80;;
34102;SDS011;20381;54.498;18.206;2023-05-07T12:28:04;5.08;;;1.17;;
34102;SDS011;20381;54.498;18.206;2023-05-07T12:30:32;11.20;;;1.80;;
34102;SDS011;20381;54.498;18.206;2023-05-07T12:33:05;6.00;;;2.25;;
34102;SDS011;20381;54.498;18.206;2023-05-07T12:35:36;4.67;;;1.40;;
34102;SDS011;20381;54.498;18.206;2023-05-07T12:38:11;3.80;;;1.47;;
34102;SDS011;20381;54.498;18.206;2023-05-07T12:40:41;3.05;;;1.40;;
34102;SDS011;20381;54.498;18.206;2023-05-07T12:45:53;5.40;;;1.67;;
34102;SDS011;20381;54.498;18.206;2023-05-07T12:48:23;2.33;;;1.65;;
34102;SDS011;20381;54.498;18.206;2023-05-07T12:50:52;2.02;;;1.60;;
34102;SDS011;20381;54.498;18.206;2023-05-07T12:53:20;2.62;;;1.62;;
34102;SDS011;20381;54.498;18.206;2023-05-07T12:55:49;2.33;;;1.60;;
34102;SDS011;20381;54.498;18.206;2023-05-07T12:58:23;2.10;;;1.35;;
34102;SDS011;20381;54.498;18.206;2023-05-07T13:00:49;2.17;;;1.40;;
34102;SDS011;20381;54.498;18.206;2023-05-07T13:03:38;2.55;;;1.50;;
34102;SDS011;20381;54.498;18.206;2023-05-07T13:08:32;2.95;;;1.67;;
34102;SDS011;20381;54.498;18.206;2023-05-07T13:11:06;2.72;;;1.75;;
34102;SDS011;20381;54.498;18.206;2023-05-07T13:13:34;3.05;;;1.62;;
34102;SDS011;20381;54.498;18.206;2023-05-07T13:16:02;3.10;;;1.50;;
34102;SDS011;20381;54.498;18.206;2023-05-07T13:18:30;2.33;;;1.50;;
34102;SDS011;20381;54.498;18.206;2023-05-07T13:20:57;4.90;;;1.40;;
34102;SDS011;20381;54.498;18.206;2023-05-07T13:23:23;2.47;;;1.30;;
34102;SDS011;20381;54.498;18.206;2023-05-07T13:25:52;3.02;;;1.30;;
34102;SDS011;20381;54.498;18.206;2023-05-07T13:28:26;5.05;;;1.47;;
34102;SDS011;20381;54.498;18.206;2023-05-07T13:30:57;2.75;;;1.37;;
34102;SDS011;20381;54.498;18.206;2023-05-07T13:33:33;3.92;;;1.98;;
34102;SDS011;20381;54.498;18.206;2023-05-07T13:36:01;7.37;;;1.65;;
34102;SDS011;20381;54.498;18.206;2023-05-07T13:38:30;3.80;;;1.50;;
34102;SDS011;20381;54.498;18.206;2023-05-07T13:40:57;5.05;;;1.60;;
34102;SDS011;20381;54.498;18.206;2023-05-07T13:43:24;5.03;;;1.50;;
34102;SDS011;20381;54.498;18.206;2023-05-07T13:45:52;4.53;;;1.47;;
34102;SDS011;20381;54.498;18.206;2023-05-07T13:48:18;3.65;;;1.50;;
34102;SDS011;20381;54.498;18.206;2023-05-07T13:50:45;2.27;;;1.53;;
34102;SDS011;20381;54.498;18.206;2023-05-07T13:53:11;2.83;;;1.32;;
34102;SDS011;20381;54.498;18.206;2023-05-07T13:55:37;2.55;;;1.20;;
34102;SDS011;20381;54.498;18.206;2023-05-07T13:58:04;4.78;;;1.42;;
34102;SDS011;20381;54.498;18.206;2023-05-07T14:00:30;1.95;;;1.30;;
34102;SDS011;20381;54.498;18.206;2023-05-07T14:02:56;3.20;;;1.45;;
34102;SDS011;20381;54.498;18.206;2023-05-07T14:05:23;4.90;;;1.40;;
34102;SDS011;20381;54.498;18.206;2023-05-07T14:07:52;2.37;;;1.75;;
34102;SDS011;20381;54.498;18.206;2023-05-07T14:10:35;2.55;;;1.60;;
34102;SDS011;20381;54.498;18.206;2023-05-07T14:13:01;2.85;;;1.62;;
34102;SDS011;20381;54.498;18.206;2023-05-07T14:15:29;5.60;;;1.82;;
34102;SDS011;20381;54.498;18.206;2023-05-07T14:17:58;3.22;;;1.60;;
34102;SDS011;20381;54.498;18.206;2023-05-07T14:20:25;7.67;;;1.52;;
34102;SDS011;20381;54.498;18.206;2023-05-07T14:22:51;3.05;;;1.70;;
34102;SDS011;20381;54.498;18.206;2023-05-07T14:25:19;6.00;;;2.72;;
34102;SDS011;20381;54.498;18.206;2023-05-07T14:27:49;2.75;;;1.40;;
34102;SDS011;20381;54.498;18.206;2023-05-07T14:30:16;2.65;;;1.70;;
34102;SDS011;20381;54.498;18.206;2023-05-07T14:32:44;4.17;;;1.90;;
34102;SDS011;20381;54.498;18.206;2023-05-07T14:35:12;6.47;;;1.85;;
34102;SDS011;20381;54.498;18.206;2023-05-07T14:37:42;3.90;;;2.15;;
34102;SDS011;20381;54.498;18.206;2023-05-07T14:40:17;6.35;;;1.90;;
34102;SDS011;20381;54.498;18.206;2023-05-07T14:42:43;2.45;;;1.42;;
34102;SDS011;20381;54.498;18.206;2023-05-07T14:45:10;2.05;;;1.60;;
34102;SDS011;20381;54.498;18.206;2023-05-07T14:47:36;3.08;;;2.10;;
34102;SDS011;20381;54.498;18.206;2023-05-07T14:50:03;6.50;;;2.77;;
34102;SDS011;20381;54.498;18.206;2023-05-07T14:52:30;5.55;;;2.37;;
34102;SDS011;20381;54.498;18.206;2023-05-07T14:55:01;2.00;;;1.70;;
34102;SDS011;20381;54.498;18.206;2023-05-07T14:57:25;2.90;;;1.72;;
34102;SDS011;20381;54.498;18.206;2023-05-07T14:59:51;2.70;;;1.70;;
34102;SDS011;20381;54.498;18.206;2023-05-07T15:02:18;6.27;;;2.10;;
34102;SDS011;20381;54.498;18.206;2023-05-07T15:04:45;3.07;;;1.93;;
34102;SDS011;20381;54.498;18.206;2023-05-07T15:07:12;4.50;;;2.03;;
34102;SDS011;20381;54.498;18.206;2023-05-07T15:09:42;4.42;;;1.90;;